Time;durP1;ratioP1;P1;durP2;ratioP2;P2;SDS_P1;SDS_P2;PMS_P1;PMS_P2;Temp;Humidity;BMP_temperature;BMP_pressure;BME280_temperature;BME280_humidity;BME280_pressure;Samples;Min_cycle;Max_cycle;Signal;HPM_P1;HPM_P2
2023/04/14 00:00:08;;;;;;;11.95;4.45;;;;;;;8.62;79.88;100751.22;5072637;28;20049;-65
2023/04/14 00:02:39;;;;;;;10.43;4.00;;;;;;;8.58;80.21;100745.47;5055767;28;20044;-63
2023/04/14 00:05:08;;;;;;;11.32;4.38;;;;;;;8.58;79.99;100750.09;5059729;28;20401;-66
2023/04/14 00:07:35;;;;;;;11.18;4.43;;;;;;;8.57;79.62;100752.00;5031690;28;20056;-60
2023/04/14 00:10:03;;;;;;;14.55;3.97;;;;;;;8.56;79.19;100754.97;5020027;28;20549;-64
2023/04/14 00:12:31;;;;;;;12.43;4.55;;;;;;;8.48;78.36;100751.63;5031062;28;20489;-62
2023/04/14 00:14:59;;;;;;;13.00;4.28;;;;;;;8.45;78.50;100754.03;5044557;28;20465;-62
2023/04/14 00:17:26;;;;;;;9.63;4.18;;;;;;;8.40;79.16;100754.00;5049441;28;20076;-59
2023/04/14 00:19:54;;;;;;;10.25;4.05;;;;;;;8.42;78.74;100757.25;5039333;28;20046;-65
2023/04/14 00:22:22;;;;;;;12.35;4.07;;;;;;;8.44;79.25;100755.09;5032655;28;20075;-65
2023/04/14 00:24:49;;;;;;;9.82;3.95;;;;;;;8.46;79.27;100747.53;5050745;28;20152;-64
2023/04/14 00:27:17;;;;;;;10.32;4.13;;;;;;;8.46;78.71;100761.09;5055193;28;20123;-63
2023/04/14 00:29:45;;;;;;;9.93;3.80;;;;;;;8.42;78.62;100763.53;5033759;28;20570;-64
2023/04/14 00:32:12;;;;;;;10.52;4.20;;;;;;;8.37;78.71;100749.88;5048694;28;20124;-64
2023/04/14 00:34:40;;;;;;;13.70;4.40;;;;;;;8.30;78.35;100754.69;5016002;28;20053;-64
2023/04/14 00:37:08;;;;;;;9.13;3.67;;;;;;;8.23;78.87;100748.63;5034147;28;20073;-66
2023/04/14 00:39:35;;;;;;;8.55;3.72;;;;;;;8.20;79.25;100751.81;5053344;28;20492;-64
2023/04/14 00:42:04;;;;;;;11.00;4.10;;;;;;;8.20;79.01;100749.09;5053268;28;20477;-64
2023/04/14 00:44:32;;;;;;;9.00;3.60;;;;;;;8.19;79.22;100747.47;5053567;28;20045;-64
2023/04/14 00:47:00;;;;;;;10.88;3.90;;;;;;;8.19;79.32;100752.91;5037124;28;20584;-64
2023/04/14 00:49:28;;;;;;;14.70;4.25;;;;;;;8.22;79.02;100752.41;5031053;28;20057;-65
2023/04/14 00:51:56;;;;;;;12.07;4.45;;;;;;;8.26;78.02;100753.53;5037886;28;20458;-64
2023/04/14 00:54:26;;;;;;;12.48;4.28;;;;;;;8.29;77.94;100755.72;5000013;28;20061;-64
2023/04/14 00:56:56;;;;;;;12.68;4.15;;;;;;;8.28;77.29;100762.25;5032271;28;20046;-64
2023/04/14 00:59:24;;;;;;;11.55;3.83;;;;;;;8.30;77.47;100773.69;5033034;28;20509;-64
2023/04/14 01:01:52;;;;;;;13.77;4.13;;;;;;;8.30;76.84;100771.78;5031024;28;20486;-65
2023/04/14 01:04:22;;;;;;;9.93;3.75;;;;;;;8.30;77.03;100770.97;5006338;28;20547;-64
2023/04/14 01:06:49;;;;;;;10.68;4.00;;;;;;;8.28;77.35;100786.69;5053091;28;20095;-64
2023/04/14 01:09:17;;;;;;;10.98;4.25;;;;;;;8.26;76.69;100776.06;5053044;28;20053;-64
2023/04/14 01:11:54;;;;;;;9.55;3.90;;;;;;;8.22;77.08;100774.09;5026834;28;20080;-63
2023/04/14 01:14:32;;;;;;;12.02;4.20;;;;;;;8.18;77.83;100773.81;5032353;28;20405;-65
2023/04/14 01:17:06;;;;;;;10.38;3.85;;;;;;;8.16;77.90;100767.00;5029963;28;20048;-64
2023/04/14 01:20:27;;;;;;;11.38;4.10;;;;;;;8.17;77.48;100774.06;5052108;28;20045;-64
2023/04/14 01:23:10;;;;;;;14.75;4.10;;;;;;;8.16;77.19;100772.41;5027729;28;20045;-64
2023/04/14 01:26:09;;;;;;;9.90;3.78;;;;;;;8.17;77.79;100765.91;5033599;28;20072;-64
2023/04/14 01:28:57;;;;;;;11.40;3.72;;;;;;;8.19;77.54;100772.72;5044111;28;20444;-64
2023/04/14 01:31:41;;;;;;;10.43;4.00;;;;;;;8.22;76.32;100774.91;5057572;28;20046;-64
2023/04/14 01:34:34;;;;;;;10.52;3.80;;;;;;;8.14;75.76;100771.84;5034055;28;20382;-64
2023/04/14 01:37:16;;;;;;;8.95;3.53;;;;;;;8.06;76.65;100765.78;5054412;28;20072;-64
2023/04/14 01:39:52;;;;;;;10.32;3.50;;;;;;;8.06;76.82;100768.50;5039734;28;20072;-64
2023/04/14 01:42:27;;;;;;;10.10;3.53;;;;;;;8.04;77.08;100773.38;5022664;28;20060;-63
2023/04/14 01:44:57;;;;;;;10.80;3.55;;;;;;;8.01;77.40;100773.88;5024550;28;20045;-64
2023/04/14 01:47:26;;;;;;;11.00;3.85;;;;;;;8.01;78.26;100773.88;5036942;28;20051;-65
2023/04/14 01:49:55;;;;;;;11.65;3.78;;;;;;;8.04;78.27;100780.69;5019859;28;20072;-64
2023/04/14 01:52:23;;;;;;;10.60;3.67;;;;;;;8.02;78.11;100780.94;5033396;28;20053;-66
2023/04/14 01:54:52;;;;;;;8.00;3.30;;;;;;;8.01;77.89;100784.72;5055374;28;20052;-65
2023/04/14 01:57:21;;;;;;;11.05;4.10;;;;;;;7.97;77.85;100783.59;5031218;28;20037;-65
2023/04/14 01:59:52;;;;;;;11.95;3.72;;;;;;;7.99;77.96;100789.59;5015224;28;20038;-64
2023/04/14 02:02:20;;;;;;;9.65;3.45;;;;;;;8.00;78.34;100787.69;5016470;28;20129;-64
2023/04/14 02:04:49;;;;;;;10.32;3.83;;;;;;;8.00;78.50;100788.50;5053562;28;20056;-64
2023/04/14 02:07:19;;;;;;;9.68;3.85;;;;;;;8.00;78.10;100788.50;5053814;28;20041;-64
2023/04/14 02:09:48;;;;;;;8.20;3.85;;;;;;;8.00;77.93;100783.06;5035069;28;20041;-65
2023/04/14 02:12:17;;;;;;;7.80;3.30;;;;;;;8.00;77.66;100785.78;5018362;28;20500;-65
2023/04/14 02:14:46;;;;;;;11.35;4.03;;;;;;;7.95;78.32;100788.44;5047511;28;20162;-64
2023/04/14 02:17:15;;;;;;;12.05;4.38;;;;;;;7.89;77.93;100797.59;5053413;28;20103;-64
2023/04/14 02:19:45;;;;;;;10.65;3.58;;;;;;;7.78;78.31;100796.63;5054649;28;20470;-64
2023/04/14 02:22:13;;;;;;;13.48;4.10;;;;;;;7.74;79.11;100800.88;5018191;28;20045;-64
2023/04/14 02:24:41;;;;;;;13.38;4.00;;;;;;;7.72;79.17;100808.47;5042670;28;20484;-64
2023/04/14 02:27:13;;;;;;;11.40;4.18;;;;;;;7.69;79.72;100804.34;5050631;28;20045;-63
2023/04/14 02:29:44;;;;;;;10.80;3.67;;;;;;;7.70;79.46;100810.63;5034409;28;20099;-64
2023/04/14 02:32:22;;;;;;;10.00;3.80;;;;;;;7.67;78.96;100802.94;5035178;28;20041;-64
2023/04/14 02:35:16;;;;;;;8.07;3.45;;;;;;;7.63;79.93;100804.53;5048287;28;20049;-64
2023/04/14 02:37:48;;;;;;;9.52;3.53;;;;;;;7.63;80.17;100816.19;5054678;28;20099;-65
2023/04/14 02:40:28;;;;;;;9.77;3.80;;;;;;;7.64;79.84;100817.84;5055528;28;20468;-64
2023/04/14 02:43:00;;;;;;;9.80;4.20;;;;;;;7.65;80.27;100814.06;5054237;28;20123;-64
2023/04/14 02:45:31;;;;;;;10.32;3.78;;;;;;;7.67;80.22;100822.78;5041151;28;20056;-64
2023/04/14 02:48:08;;;;;;;9.48;4.20;;;;;;;7.68;80.03;100823.59;5017402;28;20053;-64
2023/04/14 02:50:37;;;;;;;12.70;4.10;;;;;;;7.68;79.56;100820.88;5018209;28;20455;-63
2023/04/14 02:53:17;;;;;;;9.60;4.05;;;;;;;7.68;80.46;100819.00;5039397;28;20049;-64
2023/04/14 02:55:48;;;;;;;10.27;4.10;;;;;;;7.70;80.23;100821.47;5038437;28;20436;-64
2023/04/14 02:58:18;;;;;;;13.27;3.85;;;;;;;7.71;80.07;100816.84;5040897;28;20049;-64
2023/04/14 03:00:46;;;;;;;16.67;4.55;;;;;;;7.68;79.87;100816.28;5029278;28;20053;-63
2023/04/14 03:03:16;;;;;;;9.60;3.42;;;;;;;7.67;80.39;100820.06;5037882;28;20119;-64
2023/04/14 03:05:45;;;;;;;9.95;3.78;;;;;;;7.66;80.45;100821.13;5024775;28;20049;-64
2023/04/14 03:08:15;;;;;;;10.82;3.90;;;;;;;7.67;80.88;100822.78;5034081;28;20057;-64
2023/04/14 03:10:48;;;;;;;9.27;3.53;;;;;;;7.67;80.01;100817.34;5024118;28;20128;-65
2023/04/14 03:13:19;;;;;;;12.38;4.22;;;;;;;7.67;79.77;100825.50;5037820;28;20064;-64
2023/04/14 03:15:48;;;;;;;9.88;3.92;;;;;;;7.58;80.18;100823.44;5037123;28;20075;-64
2023/04/14 03:18:17;;;;;;;10.10;4.10;;;;;;;7.53;80.20;100821.47;5037214;28;20115;-65
2023/04/14 03:20:46;;;;;;;8.82;4.00;;;;;;;7.51;80.38;100826.31;5050874;28;20033;-64
2023/04/14 03:23:17;;;;;;;9.18;3.67;;;;;;;7.50;80.93;100827.38;5027028;28;20112;-65
2023/04/14 03:25:51;;;;;;;9.65;3.90;;;;;;;7.51;81.85;100820.09;5034047;28;20425;-64
2023/04/14 03:28:29;;;;;;;10.77;4.00;;;;;;;7.51;81.73;100822.81;5017955;28;20041;-65
2023/04/14 03:31:00;;;;;;;8.35;3.55;;;;;;;7.50;81.89;100819.25;5017117;28;20084;-64
2023/04/14 03:33:36;;;;;;;10.68;4.40;;;;;;;7.49;81.12;100825.75;5035788;28;20073;-64
2023/04/14 03:36:06;;;;;;;10.40;3.90;;;;;;;7.45;81.97;100814.56;4985579;28;20118;-64
2023/04/14 03:38:34;;;;;;;8.98;3.83;;;;;;;7.40;81.18;100816.38;5034171;28;20050;-65
2023/04/14 03:41:06;;;;;;;9.88;3.60;;;;;;;7.32;82.27;100819.50;5017325;28;20045;-64
2023/04/14 03:43:34;;;;;;;10.65;4.25;;;;;;;7.25;82.56;100819.66;5024824;28;20490;-64
2023/04/14 03:46:06;;;;;;;11.82;4.07;;;;;;;7.19;82.63;100826.06;5053308;28;20080;-65
2023/04/14 03:48:41;;;;;;;13.38;4.00;;;;;;;7.18;83.11;100827.13;5043883;28;20497;-65
2023/04/14 03:51:12;;;;;;;11.35;4.00;;;;;;;7.17;82.79;100834.44;5016854;28;20068;-63
2023/04/14 03:53:42;;;;;;;9.68;3.47;;;;;;;7.16;82.82;100832.78;5013138;28;20111;-65
2023/04/14 03:56:13;;;;;;;10.40;3.83;;;;;;;7.18;83.47;100833.38;5020294;28;20053;-64
2023/04/14 03:58:45;;;;;;;14.20;4.18;;;;;;;7.21;83.50;100832.88;5052949;28;20123;-63
2023/04/14 04:01:14;;;;;;;11.50;3.58;;;;;;;7.23;82.88;100833.47;5041245;28;20050;-65
2023/04/14 04:03:43;;;;;;;12.25;3.88;;;;;;;7.22;82.92;100831.00;5040319;28;20033;-65
2023/04/14 04:06:12;;;;;;;9.23;3.80;;;;;;;7.20;83.05;100839.38;5030650;28;20044;-65
2023/04/14 04:08:40;;;;;;;12.23;3.58;;;;;;;7.20;83.00;100838.56;5016496;28;20083;-66
2023/04/14 04:11:10;;;;;;;9.93;3.80;;;;;;;7.20;83.05;100833.97;5028171;28;20080;-59
2023/04/14 04:13:39;;;;;;;11.32;3.72;;;;;;;7.21;83.50;100848.31;5039132;28;20057;-59
2023/04/14 04:16:07;;;;;;;12.45;4.13;;;;;;;7.20;83.77;100852.94;5002734;28;20401;-64
2023/04/14 04:18:37;;;;;;;11.95;4.60;;;;;;;7.18;83.13;100846.91;4998784;28;20378;-64
2023/04/14 04:21:07;;;;;;;12.00;3.90;;;;;;;7.11;83.20;100845.44;5041029;28;20053;-57
2023/04/14 04:23:37;;;;;;;10.68;3.78;;;;;;;7.10;83.88;100843.81;5031860;28;20046;-59
2023/04/14 04:26:05;;;;;;;10.13;3.78;;;;;;;7.12;83.84;100847.91;5020895;28;20128;-63
2023/04/14 04:28:37;;;;;;;13.30;4.20;;;;;;;7.16;83.53;100849.06;5049977;28;20049;-63
2023/04/14 04:31:05;;;;;;;12.02;4.15;;;;;;;7.11;84.10;100854.38;5033266;28;20048;-64
2023/04/14 04:33:34;;;;;;;11.50;3.83;;;;;;;7.11;83.92;100850.84;5032784;28;20053;-63
2023/04/14 04:36:04;;;;;;;10.73;4.13;;;;;;;7.09;83.71;100852.97;5045563;28;20057;-65
2023/04/14 04:38:37;;;;;;;8.40;3.78;;;;;;;7.08;83.64;100857.59;5018855;28;20557;-64
2023/04/14 04:41:05;;;;;;;12.60;3.88;;;;;;;7.05;84.32;100852.66;5029584;28;20057;-65
2023/04/14 04:43:33;;;;;;;10.75;4.20;;;;;;;7.07;84.67;100852.41;5013728;28;20046;-64
2023/04/14 04:46:04;;;;;;;10.73;4.30;;;;;;;7.06;84.14;100848.88;5039189;28;20096;-64
2023/04/14 04:48:33;;;;;;;11.13;4.15;;;;;;;7.04;83.90;100846.41;5048816;28;20104;-66
2023/04/14 04:51:01;;;;;;;9.85;3.83;;;;;;;7.03;84.63;100843.97;5033052;28;20121;-64
2023/04/14 04:53:28;;;;;;;13.25;3.67;;;;;;;7.07;85.03;100853.25;5033697;28;20394;-64
2023/04/14 04:55:57;;;;;;;9.23;3.47;;;;;;;7.07;84.43;100850.53;5030758;28;20052;-63
2023/04/14 04:58:25;;;;;;;8.18;3.53;;;;;;;7.04;85.18;100854.53;5037515;28;20072;-64
2023/04/14 05:00:53;;;;;;;8.93;3.80;;;;;;;7.02;84.85;100847.72;5033181;28;20045;-65
2023/04/14 05:03:21;;;;;;;9.38;4.25;;;;;;;7.01;85.78;100854.22;5035858;28;20473;-64
2023/04/14 05:05:50;;;;;;;12.52;4.22;;;;;;;7.01;86.09;100851.50;5062102;28;20399;-63
2023/04/14 05:08:17;;;;;;;9.85;3.92;;;;;;;7.03;86.02;100854.78;5047073;28;20068;-65
2023/04/14 05:10:45;;;;;;;8.15;3.55;;;;;;;7.08;85.76;100845.94;5038663;28;20120;-65
2023/04/14 05:13:13;;;;;;;9.27;3.70;;;;;;;7.10;85.33;100844.63;5020410;28;20052;-64
2023/04/14 05:15:40;;;;;;;9.93;4.07;;;;;;;7.07;85.43;100841.56;5038991;28;20072;-64
2023/04/14 05:18:08;;;;;;;12.60;4.10;;;;;;;7.02;86.15;100842.28;5037788;28;20405;-63
2023/04/14 05:20:36;;;;;;;11.80;4.28;;;;;;;7.02;85.83;100842.28;5031025;28;20136;-65
2023/04/14 05:23:04;;;;;;;9.00;4.10;;;;;;;7.04;86.05;100845.59;5037123;28;20484;-64
2023/04/14 05:25:32;;;;;;;11.52;4.07;;;;;;;7.02;85.72;100843.16;5036305;28;20073;-65
2023/04/14 05:28:00;;;;;;;11.70;4.20;;;;;;;7.01;86.92;100846.09;5033834;28;20076;-65
2023/04/14 05:30:28;;;;;;;9.85;4.00;;;;;;;7.02;86.89;100853.97;5036802;28;20065;-63
2023/04/14 05:32:56;;;;;;;14.27;4.68;;;;;;;7.06;86.27;100843.47;5051568;28;20386;-63
2023/04/14 05:35:24;;;;;;;14.20;5.25;;;;;;;7.08;86.72;100848.66;5053644;28;20060;-63
2023/04/14 05:37:51;;;;;;;10.88;3.92;;;;;;;7.10;86.84;100851.94;5048652;28;20053;-65
2023/04/14 05:40:21;;;;;;;9.73;3.92;;;;;;;7.13;86.22;100843.31;5055744;28;20053;-63
2023/04/14 05:42:48;;;;;;;13.55;4.63;;;;;;;7.13;86.14;100844.13;5056000;28;20075;-65
2023/04/14 05:45:16;;;;;;;11.43;3.78;;;;;;;7.16;86.72;100848.22;5048644;28;20401;-64
2023/04/14 05:47:44;;;;;;;12.90;3.90;;;;;;;7.16;85.76;100846.34;5042410;28;20068;-62
2023/04/14 05:50:15;;;;;;;10.43;4.55;;;;;;;7.14;86.64;100845.75;5054971;28;20060;-65
2023/04/14 05:52:43;;;;;;;9.68;4.25;;;;;;;7.13;86.86;100844.13;5021803;28;20080;-64
2023/04/14 05:55:10;;;;;;;11.55;4.82;;;;;;;7.15;86.49;100852.84;5035942;28;20050;-64
2023/04/14 05:57:38;;;;;;;14.23;4.15;;;;;;;7.20;86.43;100850.22;5033446;28;20091;-64
2023/04/14 06:00:07;;;;;;;11.25;4.70;;;;;;;7.22;86.77;100864.34;5018747;28;20497;-64
2023/04/14 06:02:43;;;;;;;14.30;4.95;;;;;;;7.19;87.21;100853.16;5019586;28;20124;-64
2023/04/14 06:05:11;;;;;;;14.05;4.38;;;;;;;7.09;87.16;100853.81;5047544;28;20037;-63
2023/04/14 06:07:42;;;;;;;14.75;5.05;;;;;;;7.08;88.25;100854.88;5033322;28;20041;-64
2023/04/14 06:10:10;;;;;;;13.68;5.60;;;;;;;7.12;88.05;100852.50;5047069;28;20038;-64
2023/04/14 06:12:38;;;;;;;16.00;5.38;;;;;;;7.14;87.85;100845.75;5043815;28;20099;-63
2023/04/14 06:15:06;;;;;;;14.40;4.97;;;;;;;7.21;87.36;100851.84;5055595;28;20049;-64
2023/04/14 06:17:34;;;;;;;13.48;4.95;;;;;;;7.23;87.93;100852.44;5010113;28;20568;-63
2023/04/14 06:20:03;;;;;;;11.80;4.75;;;;;;;7.25;87.85;100847.59;5034340;28;20056;-64
2023/04/14 06:22:31;;;;;;;11.25;4.45;;;;;;;7.24;87.75;100845.97;5034961;28;20049;-64
2023/04/14 06:24:59;;;;;;;15.25;4.88;;;;;;;7.26;87.32;100840.28;5067672;28;20077;-64
2023/04/14 06:27:27;;;;;;;9.45;3.75;;;;;;;7.29;87.12;100847.94;5038287;28;20045;-63
2023/04/14 06:29:56;;;;;;;11.30;4.03;;;;;;;7.33;87.25;100832.81;5050492;28;20132;-63
2023/04/14 06:32:24;;;;;;;14.65;4.40;;;;;;;7.35;88.12;100846.13;5049926;28;20069;-66
2023/04/14 06:34:52;;;;;;;12.80;4.68;;;;;;;7.36;87.78;100848.59;5048632;28;20046;-65
2023/04/14 06:37:20;;;;;;;10.98;4.30;;;;;;;7.39;87.66;100847.28;5035021;28;20448;-65
2023/04/14 06:39:48;;;;;;;11.95;4.78;;;;;;;7.39;87.94;100852.69;5037041;28;20150;-65
2023/04/14 06:42:16;;;;;;;14.18;4.85;;;;;;;7.40;88.50;100848.91;5037779;28;20083;-64
2023/04/14 06:44:44;;;;;;;10.52;4.95;;;;;;;7.41;88.87;100845.16;5053305;28;20499;-64
2023/04/14 06:47:16;;;;;;;10.77;4.60;;;;;;;7.40;88.00;100848.91;5039159;28;20136;-66
2023/04/14 06:49:44;;;;;;;12.68;4.80;;;;;;;7.39;89.11;100850.00;5048773;28;20042;-65
2023/04/14 06:52:11;;;;;;;13.05;5.10;;;;;;;7.39;89.50;100850.00;5037476;28;20525;-65
2023/04/14 06:54:40;;;;;;;9.50;4.20;;;;;;;7.43;88.99;100837.56;5049215;28;20037;-64
2023/04/14 06:57:08;;;;;;;12.75;5.03;;;;;;;7.44;88.77;100839.22;5033128;28;20099;-65
2023/04/14 06:59:37;;;;;;;11.93;5.03;;;;;;;7.41;89.59;100837.00;5035960;28;20485;-65
2023/04/14 07:02:06;;;;;;;12.02;4.82;;;;;;;7.43;89.81;100837.56;5046733;28;20347;-65
2023/04/14 07:04:36;;;;;;;11.90;4.82;;;;;;;7.44;90.10;100840.03;5050810;28;20068;-65
2023/04/14 07:07:04;;;;;;;13.20;4.50;;;;;;;7.46;90.18;100831.66;5013347;28;20125;-64
2023/04/14 07:09:31;;;;;;;8.77;3.88;;;;;;;7.51;90.13;100831.75;5014016;28;20390;-65
2023/04/14 07:12:00;;;;;;;18.83;6.30;;;;;;;7.57;89.61;100828.03;5026651;28;20041;-65
2023/04/14 07:14:31;;;;;;;13.77;4.70;;;;;;;7.60;89.88;100822.13;5032666;28;20045;-65
2023/04/14 07:16:59;;;;;;;11.57;4.38;;;;;;;7.63;89.72;100821.63;5033382;28;20081;-65
2023/04/14 07:19:26;;;;;;;9.93;4.28;;;;;;;7.67;89.78;100820.06;5033176;28;20045;-66
2023/04/14 07:21:54;;;;;;;13.98;4.55;;;;;;;7.72;89.41;100823.91;5036595;28;20044;-65
2023/04/14 07:24:22;;;;;;;13.73;4.72;;;;;;;7.72;90.20;100824.75;5043442;28;20485;-65
2023/04/14 07:26:50;;;;;;;14.60;4.88;;;;;;;7.71;90.13;100817.66;5023857;28;20056;-66
2023/04/14 07:29:17;;;;;;;15.05;4.93;;;;;;;7.68;91.10;100813.56;5054561;28;20045;-65
2023/04/14 07:31:45;;;;;;;14.68;4.95;;;;;;;7.71;91.41;100814.97;5053513;28;20424;-65
2023/04/14 07:34:13;;;;;;;13.23;4.40;;;;;;;7.73;91.33;100817.44;5041261;28;20053;-65
2023/04/14 07:36:41;;;;;;;13.27;4.70;;;;;;;7.75;90.92;100807.16;5049606;28;20121;-65
2023/04/14 07:39:09;;;;;;;10.10;3.97;;;;;;;7.75;91.35;100807.16;5034080;28;20076;-65
2023/04/14 07:41:36;;;;;;;11.60;4.70;;;;;;;7.78;90.17;100806.66;5033716;28;20446;-65
2023/04/14 07:44:04;;;;;;;10.18;3.92;;;;;;;7.81;90.64;100800.72;5045349;28;20073;-66
2023/04/14 07:46:32;;;;;;;13.85;4.35;;;;;;;7.89;89.78;100800.31;5034243;28;20127;-65
2023/04/14 07:48:59;;;;;;;11.23;4.07;;;;;;;7.92;90.08;100801.69;5033671;28;20045;-65
2023/04/14 07:51:27;;;;;;;10.52;4.20;;;;;;;7.96;90.17;100797.38;5032596;28;20053;-67
2023/04/14 07:53:55;;;;;;;15.80;4.35;;;;;;;8.00;90.58;100793.91;5036024;28;20413;-65
2023/04/14 07:56:23;;;;;;;14.95;4.60;;;;;;;8.06;90.67;100802.97;5033194;28;20044;-65
2023/04/14 07:58:51;;;;;;;12.25;4.30;;;;;;;8.12;89.83;100793.81;5033544;28;20053;-65
2023/04/14 08:01:18;;;;;;;13.02;4.03;;;;;;;8.15;89.54;100789.75;5033008;28;20133;-64
2023/04/14 08:03:47;;;;;;;9.77;4.03;;;;;;;8.19;89.08;100797.16;5017339;28;20466;-64
2023/04/14 08:06:15;;;;;;;9.70;3.88;;;;;;;8.21;88.94;100794.19;5033478;28;20045;-65
2023/04/14 08:08:43;;;;;;;12.13;4.22;;;;;;;8.25;88.04;100800.72;5050984;28;20046;-66
2023/04/14 08:11:11;;;;;;;10.63;3.83;;;;;;;8.27;87.91;100798.59;5022244;28;20049;-65
2023/04/14 08:13:39;;;;;;;12.68;4.28;;;;;;;8.30;87.72;100798.91;5053244;28;20116;-58
2023/04/14 08:16:08;;;;;;;12.68;3.90;;;;;;;8.36;88.17;100788.94;5058533;28;20057;-64
2023/04/14 08:18:36;;;;;;;13.63;4.47;;;;;;;8.48;90.51;100795.06;5058541;28;20049;-62
2023/04/14 08:21:04;;;;;;;10.80;3.92;;;;;;;8.56;88.51;100795.69;5065330;28;20048;-57
2023/04/14 08:23:31;;;;;;;16.65;4.40;;;;;;;8.58;87.21;100790.84;5068093;28;20049;-59
2023/04/14 08:25:59;;;;;;;14.20;4.25;;;;;;;8.59;86.07;100795.19;5065246;28;20049;-63
2023/04/14 08:28:28;;;;;;;11.30;4.07;;;;;;;8.60;85.44;100792.22;5089804;28;20065;-64
2023/04/14 08:30:57;;;;;;;10.57;3.80;;;;;;;8.66;85.22;100790.38;5044928;28;20116;-64
2023/04/14 08:33:26;;;;;;;11.05;3.60;;;;;;;8.73;84.27;100788.25;5044091;28;20041;-61
2023/04/14 08:35:53;;;;;;;14.23;3.95;;;;;;;8.76;84.79;100793.19;5028440;28;20053;-64
2023/04/14 08:38:27;;;;;;;12.88;4.05;;;;;;;8.78;84.42;100795.66;5021017;28;20045;-64
2023/04/14 08:40:56;;;;;;;13.60;4.55;;;;;;;8.86;84.88;100790.56;5037141;28;20055;-64
2023/04/14 08:43:24;;;;;;;16.08;4.65;;;;;;;8.94;84.39;100792.81;5034274;28;20042;-66
2023/04/14 08:45:53;;;;;;;11.05;3.80;;;;;;;9.01;83.91;100797.22;5035195;28;20053;-65
2023/04/14 08:48:22;;;;;;;9.05;3.70;;;;;;;9.05;82.45;100799.19;5032844;28;20041;-66
2023/04/14 08:51:05;;;;;;;13.02;3.90;;;;;;;9.03;82.78;100795.91;5032391;28;20128;-65
2023/04/14 08:53:33;;;;;;;12.48;4.55;;;;;;;9.07;84.07;100802.47;5048726;28;20060;-63
2023/04/14 08:56:03;;;;;;;12.48;3.97;;;;;;;9.11;84.24;100798.13;5033524;28;20077;-66
2023/04/14 08:58:31;;;;;;;10.57;4.00;;;;;;;9.14;81.40;100791.38;5033223;28;20409;-65
2023/04/14 09:00:59;;;;;;;13.63;3.50;;;;;;;9.18;78.22;100797.91;5064221;28;20069;-65
2023/04/14 09:03:26;;;;;;;10.30;3.10;;;;;;;9.19;78.30;100788.69;5032553;28;20049;-66
2023/04/14 09:05:55;;;;;;;12.40;3.50;;;;;;;9.23;78.75;100795.25;5032155;28;20072;-65
2023/04/14 09:08:23;;;;;;;11.65;3.30;;;;;;;9.28;77.95;100792.56;5048458;28;20045;-66
2023/04/14 09:10:51;;;;;;;12.60;3.63;;;;;;;9.29;78.12;100793.41;5039629;28;20036;-66
2023/04/14 09:13:21;;;;;;;10.07;3.40;;;;;;;9.30;78.88;100793.13;5015854;28;20045;-65
2023/04/14 09:15:49;;;;;;;8.90;3.17;;;;;;;9.37;78.01;100782.03;5032816;28;20076;-65
2023/04/14 09:18:17;;;;;;;8.57;3.15;;;;;;;9.41;77.19;100790.50;5031874;28;20053;-66
2023/04/14 09:20:49;;;;;;;10.10;3.28;;;;;;;9.42;77.03;100789.41;5020096;28;20091;-65
2023/04/14 09:23:40;;;;;;;10.45;3.40;;;;;;;9.49;76.29;100792.72;5051130;28;20041;-66
2023/04/14 09:26:09;;;;;;;8.00;3.28;;;;;;;9.52;74.68;100792.19;5043233;28;20042;-66
2023/04/14 09:28:37;;;;;;;9.82;3.08;;;;;;;9.53;74.68;100785.69;5031648;28;20045;-65
2023/04/14 09:31:05;;;;;;;9.57;3.10;;;;;;;9.55;75.10;100780.81;5016788;28;20116;-67
2023/04/14 09:33:36;;;;;;;12.10;3.63;;;;;;;9.70;82.79;100780.88;5052909;28;20049;-67
2023/04/14 09:36:04;;;;;;;12.48;4.10;;;;;;;9.85;73.87;100784.78;5053920;28;20052;-66
2023/04/14 09:38:37;;;;;;;11.55;4.75;;;;;;;9.93;78.09;100776.09;5029225;28;20072;-67
2023/04/14 09:41:07;;;;;;;9.25;3.20;;;;;;;9.94;76.18;100775.84;5031879;28;20050;-64
2023/04/14 09:43:35;;;;;;;7.28;2.90;;;;;;;9.90;73.85;100779.34;5031643;28;20050;-66
2023/04/14 09:46:09;;;;;;;8.18;3.50;;;;;;;9.88;73.23;100768.72;5033692;28;20042;-67
2023/04/14 09:48:58;;;;;;;10.05;3.55;;;;;;;9.90;71.21;100771.19;5033340;28;20132;-65
2023/04/14 09:51:31;;;;;;;10.50;3.30;;;;;;;9.93;70.70;100770.66;5036320;28;20446;-67
2023/04/14 09:54:03;;;;;;;18.67;6.32;;;;;;;10.00;74.78;100765.78;5051306;28;20076;-67
2023/04/14 09:56:32;;;;;;;9.93;3.33;;;;;;;10.13;75.58;100762.59;5056399;28;20045;-66
2023/04/14 09:59:00;;;;;;;11.00;3.47;;;;;;;10.17;75.15;100763.72;5056495;28;20072;-66
2023/04/14 10:01:32;;;;;;;9.32;3.35;;;;;;;10.26;73.14;100758.53;5044248;28;20068;-66
2023/04/14 10:04:01;;;;;;;10.10;3.08;;;;;;;10.36;69.22;100771.41;5019394;28;20072;-67
2023/04/14 10:06:32;;;;;;;7.13;2.90;;;;;;;10.34;66.67;100766.25;5035310;28;20054;-67
2023/04/14 10:09:01;;;;;;;7.85;3.10;;;;;;;10.30;66.86;100758.88;5041827;28;20045;-65
2023/04/14 10:11:31;;;;;;;6.88;2.95;;;;;;;10.32;66.73;100751.22;5040225;28;20068;-66
2023/04/14 10:14:04;;;;;;;95.72;25.17;;;;;;;10.27;66.76;100762.94;5043235;28;20075;-65
2023/04/14 10:16:33;;;;;;;8.43;3.10;;;;;;;10.19;66.43;100747.91;5043033;28;20045;-65
2023/04/14 10:19:01;;;;;;;11.30;3.15;;;;;;;10.21;67.16;100744.91;5052039;28;20042;-66
2023/04/14 10:21:30;;;;;;;12.10;3.25;;;;;;;10.26;67.06;100735.94;5036392;28;20041;-65
2023/04/14 10:23:58;;;;;;;10.63;3.35;;;;;;;10.24;67.23;100737.03;5038304;28;20080;-65
2023/04/14 10:26:26;;;;;;;9.60;3.30;;;;;;;10.23;67.88;100732.66;5055685;28;20061;-65
2023/04/14 10:28:55;;;;;;;10.48;3.25;;;;;;;10.26;67.31;100734.03;5041256;28;20140;-65
2023/04/14 10:31:32;;;;;;;35.88;13.38;;;;;;;10.35;67.00;100731.66;5034200;28;20049;-66
2023/04/14 10:34:10;;;;;;;11.15;3.30;;;;;;;10.43;65.46;100734.66;5034931;28;20049;-67
2023/04/14 10:36:38;;;;;;;108.22;45.78;;;;;;;10.52;67.40;100721.34;5056080;28;20049;-66
2023/04/14 10:39:06;;;;;;;7.90;3.00;;;;;;;10.57;65.38;100715.06;5054250;28;20413;-66
2023/04/14 10:41:48;;;;;;;11.95;3.30;;;;;;;10.61;63.82;100717.00;5042395;28;20120;-68
2023/04/14 10:44:30;;;;;;;14.95;5.82;;;;;;;10.65;64.93;100718.09;5037228;28;20077;-65
2023/04/14 10:47:03;;;;;;;15.02;5.05;;;;;;;10.69;62.25;100714.81;5017930;28;20524;-66
2023/04/14 10:49:33;;;;;;;9.75;3.42;;;;;;;10.74;60.60;100715.63;5054493;28;20042;-66
2023/04/14 10:52:25;;;;;;;64.47;30.23;;;;;;;10.77;64.99;100711.53;5035190;28;20383;-66
2023/04/14 10:55:06;;;;;;;84.68;36.83;;;;;;;10.83;69.90;100707.75;5020962;28;20049;-66
2023/04/14 10:57:41;;;;;;;141.77;64.97;;;;;;;10.99;73.23;100705.81;5016749;28;20045;-66
2023/04/14 11:00:25;;;;;;;8.57;2.83;;;;;;;10.97;60.81;100703.38;5016907;28;20053;-67
2023/04/14 11:03:04;;;;;;;89.88;42.65;;;;;;;11.04;68.03;100701.19;5025384;28;20049;-66
2023/04/14 11:05:33;;;;;;;110.28;56.58;;;;;;;11.17;78.20;100699.00;5050621;28;20045;-66
2023/04/14 11:08:11;;;;;;;75.20;35.97;;;;;;;11.21;78.83;100697.34;5035616;28;20099;-66
2023/04/14 11:10:39;;;;;;;11.82;4.75;;;;;;;11.19;64.33;100694.09;5035562;28;20044;-66
2023/04/14 11:13:10;;;;;;;18.10;8.00;;;;;;;11.17;62.38;100688.09;5037215;28;20059;-66
2023/04/14 11:16:01;;;;;;;22.13;9.45;;;;;;;11.17;65.89;100691.63;5057654;28;20060;-66
2023/04/14 11:18:29;;;;;;;25.85;10.82;;;;;;;11.29;61.85;100699.50;5028881;28;20049;-67
2023/04/14 11:21:04;;;;;;;8.93;3.03;;;;;;;11.21;58.53;100690.00;5036245;28;20046;-66
2023/04/14 11:23:33;;;;;;;10.32;3.00;;;;;;;11.19;57.96;100684.00;5034298;28;20049;-67
2023/04/14 11:26:01;;;;;;;18.83;8.63;;;;;;;11.21;58.72;100679.09;5039509;28;20045;-64
2023/04/14 11:28:30;;;;;;;12.05;5.10;;;;;;;11.27;58.26;100688.06;5033386;28;20057;-65
2023/04/14 11:30:59;;;;;;;11.90;4.65;;;;;;;11.38;56.77;100689.69;5033152;28;20124;-65
2023/04/14 11:33:33;;;;;;;85.97;43.42;;;;;;;11.52;67.43;100676.28;5034018;28;20052;-65
2023/04/14 11:36:02;;;;;;;57.17;28.20;;;;;;;11.59;64.32;100686.88;5046924;28;20045;-65
2023/04/14 11:38:30;;;;;;;46.00;23.10;;;;;;;11.63;65.25;100687.97;5044323;28;20045;-66
2023/04/14 11:40:58;;;;;;;8.93;2.78;;;;;;;11.65;57.93;100680.31;5053820;28;20056;-67